sensor_id;sensor_type;location;lat;lon;timestamp;pressure;altitude;pressure_sealevel;temperature;humidity
15314;BME280;7757;52.626;4.746;2023-05-19T00:02:17;102715.44;;;11.01;74.77
15314;BME280;7757;52.626;4.746;2023-05-19T00:04:48;102718.25;;;11.00;74.47
15314;BME280;7757;52.626;4.746;2023-05-19T00:07:16;102694.56;;;11.14;73.39
15314;BME280;7757;52.626;4.746;2023-05-19T00:09:42;102713.66;;;11.48;73.58
15314;BME280;7757;52.626;4.746;2023-05-19T00:12:08;102709.38;;;11.18;73.17
15314;BME280;7757;52.626;4.746;2023-05-19T00:14:35;102708.81;;;11.05;74.88
15314;BME280;7757;52.626;4.746;2023-05-19T00:17:00;102710.91;;;11.02;73.91
15314;BME280;7757;52.626;4.746;2023-05-19T00:19:26;102706.22;;;11.42;73.41
15314;BME280;7757;52.626;4.746;2023-05-19T00:21:59;102709.56;;;11.54;73.99
15314;BME280;7757;52.626;4.746;2023-05-19T00:24:24;102697.41;;;11.03;74.65
15314;BME280;7757;52.626;4.746;2023-05-19T00:26:50;102706.81;;;11.27;73.90
15314;BME280;7757;52.626;4.746;2023-05-19T00:29:15;102702.88;;;11.58;73.55
15314;BME280;7757;52.626;4.746;2023-05-19T00:31:42;102711.94;;;11.94;71.37
15314;BME280;7757;52.626;4.746;2023-05-19T00:34:08;102687.59;;;11.31;74.00
15314;BME280;7757;52.626;4.746;2023-05-19T00:36:33;102691.16;;;11.22;74.16
15314;BME280;7757;52.626;4.746;2023-05-19T00:39:00;102701.06;;;11.02;75.15
15314;BME280;7757;52.626;4.746;2023-05-19T00:41:28;102707.56;;;10.90;75.39
15314;BME280;7757;52.626;4.746;2023-05-19T00:43:53;102688.97;;;10.89;75.69
15314;BME280;7757;52.626;4.746;2023-05-19T00:46:19;102694.34;;;10.89;75.33
15314;BME280;7757;52.626;4.746;2023-05-19T00:48:45;102691.59;;;11.08;76.18
15314;BME280;7757;52.626;4.746;2023-05-19T00:51:11;102696.09;;;11.27;74.72
15314;BME280;7757;52.626;4.746;2023-05-19T00:53:39;102703.56;;;11.23;74.64
15314;BME280;7757;52.626;4.746;2023-05-19T00:56:04;102694.44;;;10.97;75.78
15314;BME280;7757;52.626;4.746;2023-05-19T00:58:33;102679.66;;;11.02;76.19
15314;BME280;7757;52.626;4.746;2023-05-19T01:01:06;102675.16;;;10.84;75.82
15314;BME280;7757;52.626;4.746;2023-05-19T01:03:33;102679.34;;;11.15;73.97
15314;BME280;7757;52.626;4.746;2023-05-19T01:05:59;102698.56;;;10.62;77.57
15314;BME280;7757;52.626;4.746;2023-05-19T01:08:36;102694.75;;;10.94;76.49
15314;BME280;7757;52.626;4.746;2023-05-19T01:11:03;102698.00;;;10.69;77.92
15314;BME280;7757;52.626;4.746;2023-05-19T01:13:32;102695.63;;;10.66;77.45
15314;BME280;7757;52.626;4.746;2023-05-19T01:16:10;102696.84;;;11.09;75.86
15314;BME280;7757;52.626;4.746;2023-05-19T01:32:29;102662.50;;;10.76;76.49
15314;BME280;7757;52.626;4.746;2023-05-19T01:34:55;102687.16;;;10.51;77.59
15314;BME280;7757;52.626;4.746;2023-05-19T01:37:22;102678.41;;;10.58;77.67
15314;BME280;7757;52.626;4.746;2023-05-19T01:39:49;102685.19;;;10.62;78.32
15314;BME280;7757;52.626;4.746;2023-05-19T01:42:18;102675.72;;;10.78;77.78
15314;BME280;7757;52.626;4.746;2023-05-19T01:44:45;102676.28;;;11.00;75.14
15314;BME280;7757;52.626;4.746;2023-05-19T01:47:11;102668.41;;;10.89;75.29
15314;BME280;7757;52.626;4.746;2023-05-19T01:49:40;102674.19;;;10.75;77.53
15314;BME280;7757;52.626;4.746;2023-05-19T01:52:05;102670.81;;;10.73;76.83
15314;BME280;7757;52.626;4.746;2023-05-19T01:54:30;102682.50;;;10.62;77.44
15314;BME280;7757;52.626;4.746;2023-05-19T01:57:18;102672.09;;;10.50;78.71
15314;BME280;7757;52.626;4.746;2023-05-19T01:59:58;102667.84;;;10.76;76.94
15314;BME280;7757;52.626;4.746;2023-05-19T02:02:47;102665.88;;;10.49;77.78
15314;BME280;7757;52.626;4.746;2023-05-19T02:05:22;102669.41;;;10.40;77.67
15314;BME280;7757;52.626;4.746;2023-05-19T02:08:15;102660.09;;;10.73;76.86
15314;BME280;7757;52.626;4.746;2023-05-19T02:10:52;102646.75;;;10.35;77.78
15314;BME280;7757;52.626;4.746;2023-05-19T02:13:24;102661.81;;;10.55;78.53
15314;BME280;7757;52.626;4.746;2023-05-19T02:15:57;102652.50;;;10.40;78.46
15314;BME280;7757;52.626;4.746;2023-05-19T02:18:27;102673.19;;;10.57;79.25
15314;BME280;7757;52.626;4.746;2023-05-19T02:20:58;102674.06;;;10.38;79.16
15314;BME280;7757;52.626;4.746;2023-05-19T02:23:27;102672.22;;;10.48;78.96
15314;BME280;7757;52.626;4.746;2023-05-19T02:25:53;102648.56;;;10.34;78.83
15314;BME280;7757;52.626;4.746;2023-05-19T02:28:18;102660.53;;;10.30;79.19
15314;BME280;7757;52.626;4.746;2023-05-19T02:30:43;102654.31;;;10.39;78.55
15314;BME280;7757;52.626;4.746;2023-05-19T02:33:12;102646.88;;;10.52;77.42
15314;BME280;7757;52.626;4.746;2023-05-19T02:35:37;102651.22;;;10.63;78.69
15314;BME280;7757;52.626;4.746;2023-05-19T02:38:03;102649.28;;;10.55;77.28
15314;BME280;7757;52.626;4.746;2023-05-19T02:40:28;102662.75;;;10.16;79.49
15314;BME280;7757;52.626;4.746;2023-05-19T02:42:53;102652.50;;;10.40;79.25
15314;BME280;7757;52.626;4.746;2023-05-19T02:45:19;102647.28;;;10.77;77.93
15314;BME280;7757;52.626;4.746;2023-05-19T02:47:44;102647.38;;;10.08;79.45
15314;BME280;7757;52.626;4.746;2023-05-19T02:50:10;102621.13;;;10.32;79.30
15314;BME280;7757;52.626;4.746;2023-05-19T02:52:38;102637.00;;;10.34;78.92
15314;BME280;7757;52.626;4.746;2023-05-19T02:55:03;102652.09;;;10.44;78.84
15314;BME280;7757;52.626;4.746;2023-05-19T02:57:33;102643.47;;;10.70;77.33
15314;BME280;7757;52.626;4.746;2023-05-19T02:59:59;102636.16;;;10.43;78.31
15314;BME280;7757;52.626;4.746;2023-05-19T03:02:24;102633.50;;;10.72;77.30
15314;BME280;7757;52.626;4.746;2023-05-19T03:04:50;102600.28;;;10.26;78.44
15314;BME280;7757;52.626;4.746;2023-05-19T03:07:15;102645.06;;;10.43;79.31
15314;BME280;7757;52.626;4.746;2023-05-19T03:09:41;102632.53;;;10.15;79.68
15314;BME280;7757;52.626;4.746;2023-05-19T03:12:06;102624.47;;;10.73;78.73
15314;BME280;7757;52.626;4.746;2023-05-19T03:14:35;102633.78;;;10.49;78.49
15314;BME280;7757;52.626;4.746;2023-05-19T03:17:03;102640.41;;;10.45;78.93
15314;BME280;7757;52.626;4.746;2023-05-19T03:19:31;102628.72;;;10.27;80.13
15314;BME280;7757;52.626;4.746;2023-05-19T03:21:57;102632.38;;;10.36;79.72
15314;BME280;7757;52.626;4.746;2023-05-19T03:24:22;102625.47;;;10.43;79.10
15314;BME280;7757;52.626;4.746;2023-05-19T03:26:47;102604.50;;;10.19;79.79
15314;BME280;7757;52.626;4.746;2023-05-19T03:29:13;102594.25;;;10.24;78.82
15314;BME280;7757;52.626;4.746;2023-05-19T03:31:38;102601.38;;;10.04;79.95
15314;BME280;7757;52.626;4.746;2023-05-19T03:34:03;102628.91;;;9.95;80.93
15314;BME280;7757;52.626;4.746;2023-05-19T03:36:32;102628.25;;;10.13;80.75
15314;BME280;7757;52.626;4.746;2023-05-19T03:39:04;102632.91;;;10.78;77.92
15314;BME280;7757;52.626;4.746;2023-05-19T03:41:31;102640.53;;;10.34;78.72
15314;BME280;7757;52.626;4.746;2023-05-19T03:43:56;102638.41;;;10.28;79.27
15314;BME280;7757;52.626;4.746;2023-05-19T03:46:21;102637.72;;;10.64;78.39
15314;BME280;7757;52.626;4.746;2023-05-19T03:48:47;102638.28;;;10.58;79.49
15314;BME280;7757;52.626;4.746;2023-05-19T03:51:12;102628.06;;;11.10;76.91
15314;BME280;7757;52.626;4.746;2023-05-19T03:53:38;102629.53;;;10.76;78.46
15314;BME280;7757;52.626;4.746;2023-05-19T03:56:03;102609.00;;;10.57;78.51
15314;BME280;7757;52.626;4.746;2023-05-19T03:58:30;102630.38;;;10.57;79.20
15314;BME280;7757;52.626;4.746;2023-05-19T04:00:55;102619.28;;;10.61;78.78
15314;BME280;7757;52.626;4.746;2023-05-19T04:03:20;102613.34;;;10.68;78.59
15314;BME280;7757;52.626;4.746;2023-05-19T04:05:46;102624.72;;;10.89;78.49
15314;BME280;7757;52.626;4.746;2023-05-19T04:08:11;102623.47;;;10.83;78.11
15314;BME280;7757;52.626;4.746;2023-05-19T04:10:40;102636.88;;;10.74;79.00
15314;BME280;7757;52.626;4.746;2023-05-19T04:13:05;102617.00;;;10.67;78.82
15314;BME280;7757;52.626;4.746;2023-05-19T04:15:31;102633.00;;;11.05;78.10
15314;BME280;7757;52.626;4.746;2023-05-19T04:17:56;102618.34;;;10.99;78.23
15314;BME280;7757;52.626;4.746;2023-05-19T04:20:21;102628.88;;;11.20;77.51
15314;BME280;7757;52.626;4.746;2023-05-19T04:22:47;102614.91;;;10.70;78.66
15314;BME280;7757;52.626;4.746;2023-05-19T04:25:12;102644.63;;;11.23;78.48
15314;BME280;7757;52.626;4.746;2023-05-19T04:27:37;102621.69;;;11.20;76.25
15314;BME280;7757;52.626;4.746;2023-05-19T04:30:06;102630.09;;;11.26;76.61
15314;BME280;7757;52.626;4.746;2023-05-19T04:32:32;102642.91;;;11.96;75.25
15314;BME280;7757;52.626;4.746;2023-05-19T04:35:01;102625.03;;;11.23;77.38
15314;BME280;7757;52.626;4.746;2023-05-19T04:37:27;102627.22;;;11.09;77.76
15314;BME280;7757;52.626;4.746;2023-05-19T04:39:54;102642.78;;;11.70;76.10
15314;BME280;7757;52.626;4.746;2023-05-19T04:42:19;102627.94;;;11.02;78.23
15314;BME280;7757;52.626;4.746;2023-05-19T04:44:45;102653.06;;;11.28;78.25
15314;BME280;7757;52.626;4.746;2023-05-19T04:47:13;102636.34;;;11.16;78.59
15314;BME280;7757;52.626;4.746;2023-05-19T04:49:39;102622.25;;;11.24;78.68
15314;BME280;7757;52.626;4.746;2023-05-19T04:52:09;102631.88;;;11.44;78.02
15314;BME280;7757;52.626;4.746;2023-05-19T04:54:36;102653.59;;;11.78;76.44
15314;BME280;7757;52.626;4.746;2023-05-19T04:57:02;102639.97;;;11.62;77.24
15314;BME280;7757;52.626;4.746;2023-05-19T04:59:30;102657.69;;;12.27;75.95
15314;BME280;7757;52.626;4.746;2023-05-19T05:01:56;102652.22;;;11.74;77.35
15314;BME280;7757;52.626;4.746;2023-05-19T05:04:22;102651.91;;;12.04;76.30
15314;BME280;7757;52.626;4.746;2023-05-19T05:06:47;102640.41;;;11.94;74.69
15314;BME280;7757;52.626;4.746;2023-05-19T05:09:14;102652.63;;;12.24;75.40
15314;BME280;7757;52.626;4.746;2023-05-19T05:11:40;102646.34;;;12.51;74.18
15314;BME280;7757;52.626;4.746;2023-05-19T05:14:09;102626.78;;;12.23;74.52
15314;BME280;7757;52.626;4.746;2023-05-19T05:16:35;102651.84;;;12.49;74.95
15314;BME280;7757;52.626;4.746;2023-05-19T05:19:01;102648.84;;;12.70;74.38
15314;BME280;7757;52.626;4.746;2023-05-19T05:21:27;102657.38;;;12.48;75.46
15314;BME280;7757;52.626;4.746;2023-05-19T05:23:53;102634.91;;;12.66;73.79
15314;BME280;7757;52.626;4.746;2023-05-19T05:26:19;102661.06;;;13.33;72.63
15314;BME280;7757;52.626;4.746;2023-05-19T05:28:48;102660.03;;;14.02;70.82
15314;BME280;7757;52.626;4.746;2023-05-19T05:31:14;102660.16;;;14.83;67.17
15314;BME280;7757;52.626;4.746;2023-05-19T05:33:41;102660.47;;;14.47;68.10
15314;BME280;7757;52.626;4.746;2023-05-19T05:36:10;102663.75;;;15.54;64.65
15314;BME280;7757;52.626;4.746;2023-05-19T05:38:35;102662.59;;;16.18;62.56
15314;BME280;7757;52.626;4.746;2023-05-19T05:41:01;102663.84;;;16.61;61.15
15314;BME280;7757;52.626;4.746;2023-05-19T05:43:28;102669.00;;;17.08;59.13
15314;BME280;7757;52.626;4.746;2023-05-19T05:45:54;102661.47;;;17.33;58.52
15314;BME280;7757;52.626;4.746;2023-05-19T05:48:19;102651.31;;;17.06;59.53
15314;BME280;7757;52.626;4.746;2023-05-19T05:50:45;102639.47;;;17.36;57.68
15314;BME280;7757;52.626;4.746;2023-05-19T05:53:18;102661.00;;;19.09;53.82
15314;BME280;7757;52.626;4.746;2023-05-19T05:55:47;102639.28;;;19.71;51.28
15314;BME280;7757;52.626;4.746;2023-05-19T05:58:19;102648.13;;;18.89;53.60
15314;BME280;7757;52.626;4.746;2023-05-19T06:00:45;102655.66;;;20.71;49.66
15314;BME280;7757;52.626;4.746;2023-05-19T06:03:12;102659.78;;;20.40;50.35
15314;BME280;7757;52.626;4.746;2023-05-19T06:05:38;102647.47;;;19.43;51.08
15314;BME280;7757;52.626;4.746;2023-05-19T06:08:04;102658.81;;;18.34;54.93
15314;BME280;7757;52.626;4.746;2023-05-19T06:10:30;102637.97;;;17.77;56.22
15314;BME280;7757;52.626;4.746;2023-05-19T06:12:56;102657.16;;;18.33;54.79
15314;BME280;7757;52.626;4.746;2023-05-19T06:15:21;102633.59;;;20.13;50.73
15314;BME280;7757;52.626;4.746;2023-05-19T06:17:47;102642.56;;;20.07;49.54
15314;BME280;7757;52.626;4.746;2023-05-19T06:20:12;102645.69;;;20.17;49.84
15314;BME280;7757;52.626;4.746;2023-05-19T06:22:38;102652.13;;;21.09;46.89
15314;BME280;7757;52.626;4.746;2023-05-19T06:25:04;102659.56;;;21.47;46.12
15314;BME280;7757;52.626;4.746;2023-05-19T06:27:30;102654.69;;;19.02;51.99
15314;BME280;7757;52.626;4.746;2023-05-19T06:29:55;102664.97;;;20.22;49.87
15314;BME280;7757;52.626;4.746;2023-05-19T06:32:21;102653.72;;;20.38;49.43
15314;BME280;7757;52.626;4.746;2023-05-19T06:34:46;102656.56;;;21.75;45.77
15314;BME280;7757;52.626;4.746;2023-05-19T06:37:21;102666.28;;;22.46;44.57
15314;BME280;7757;52.626;4.746;2023-05-19T06:39:51;102641.66;;;20.87;46.63
15314;BME280;7757;52.626;4.746;2023-05-19T06:42:20;102664.22;;;20.94;47.59
15314;BME280;7757;52.626;4.746;2023-05-19T06:44:50;102652.09;;;20.70;48.11
15314;BME280;7757;52.626;4.746;2023-05-19T06:47:16;102642.88;;;21.30;46.64
15314;BME280;7757;52.626;4.746;2023-05-19T06:49:43;102659.72;;;19.67;49.39
15314;BME280;7757;52.626;4.746;2023-05-19T06:52:09;102645.84;;;21.09;48.19
15314;BME280;7757;52.626;4.746;2023-05-19T06:54:34;102657.44;;;20.24;48.43
15314;BME280;7757;52.626;4.746;2023-05-19T06:57:00;102656.44;;;22.39;44.78
15314;BME280;7757;52.626;4.746;2023-05-19T06:59:25;102660.69;;;23.15;41.91
15314;BME280;7757;52.626;4.746;2023-05-19T07:01:50;102660.53;;;25.25;38.12
15314;BME280;7757;52.626;4.746;2023-05-19T07:04:16;102660.44;;;23.42;41.71
15314;BME280;7757;52.626;4.746;2023-05-19T07:06:41;102657.97;;;23.76;39.81
15314;BME280;7757;52.626;4.746;2023-05-19T07:09:06;102661.16;;;23.55;40.14
15314;BME280;7757;52.626;4.746;2023-05-19T07:11:33;102671.28;;;22.11;42.41
15314;BME280;7757;52.626;4.746;2023-05-19T07:13:58;102641.06;;;24.69;38.45
15314;BME280;7757;52.626;4.746;2023-05-19T07:16:23;102648.78;;;24.19;39.26
15314;BME280;7757;52.626;4.746;2023-05-19T07:18:49;102662.94;;;26.25;36.12
15314;BME280;7757;52.626;4.746;2023-05-19T07:21:14;102660.91;;;24.53;38.64
15314;BME280;7757;52.626;4.746;2023-05-19T07:23:40;102655.88;;;25.61;37.17
15314;BME280;7757;52.626;4.746;2023-05-19T07:26:05;102665.25;;;26.16;36.23
15314;BME280;7757;52.626;4.746;2023-05-19T07:28:30;102662.38;;;26.11;34.90
15314;BME280;7757;52.626;4.746;2023-05-19T07:30:56;102647.25;;;26.37;35.39
15314;BME280;7757;52.626;4.746;2023-05-19T07:33:21;102653.97;;;26.01;35.76
15314;BME280;7757;52.626;4.746;2023-05-19T07:35:47;102657.06;;;25.41;35.93
15314;BME280;7757;52.626;4.746;2023-05-19T07:38:12;102657.22;;;24.47;37.79
15314;BME280;7757;52.626;4.746;2023-05-19T07:40:38;102662.91;;;25.10;37.53
15314;BME280;7757;52.626;4.746;2023-05-19T07:43:03;102636.78;;;23.54;39.18
15314;BME280;7757;52.626;4.746;2023-05-19T07:45:28;102654.28;;;23.03;40.16
15314;BME280;7757;52.626;4.746;2023-05-19T07:47:54;102654.03;;;24.20;39.38
15314;BME280;7757;52.626;4.746;2023-05-19T07:50:19;102646.97;;;21.59;44.61
15314;BME280;7757;52.626;4.746;2023-05-19T07:52:48;102649.75;;;21.39;44.57
15314;BME280;7757;52.626;4.746;2023-05-19T07:55:13;102664.81;;;22.06;43.96
15314;BME280;7757;52.626;4.746;2023-05-19T07:57:39;102647.88;;;20.35;46.09
15314;BME280;7757;52.626;4.746;2023-05-19T08:00:04;102656.94;;;21.85;44.83
15314;BME280;7757;52.626;4.746;2023-05-19T08:02:36;102651.91;;;22.89;41.83
15314;BME280;7757;52.626;4.746;2023-05-19T08:05:01;102655.66;;;22.63;42.43
15314;BME280;7757;52.626;4.746;2023-05-19T08:07:26;102628.34;;;22.38;41.66
15314;BME280;7757;52.626;4.746;2023-05-19T08:09:52;102630.72;;;21.26;41.44
15314;BME280;7757;52.626;4.746;2023-05-19T08:12:17;102618.63;;;21.73;43.08
15314;BME280;7757;52.626;4.746;2023-05-19T08:14:43;102638.16;;;22.46;41.95
15314;BME280;7757;52.626;4.746;2023-05-19T08:17:08;102635.16;;;21.85;42.18
15314;BME280;7757;52.626;4.746;2023-05-19T08:19:33;102651.00;;;23.19;41.39
15314;BME280;7757;52.626;4.746;2023-05-19T08:21:59;102640.59;;;21.07;42.07
15314;BME280;7757;52.626;4.746;2023-05-19T08:24:26;102602.47;;;20.22;44.11
15314;BME280;7757;52.626;4.746;2023-05-19T08:26:54;102627.81;;;20.82;42.90
15314;BME280;7757;52.626;4.746;2023-05-19T08:29:19;102619.69;;;21.79;40.57
15314;BME280;7757;52.626;4.746;2023-05-19T08:31:44;102589.13;;;22.39;38.64
15314;BME280;7757;52.626;4.746;2023-05-19T08:34:10;102633.25;;;21.28;41.78
15314;BME280;7757;52.626;4.746;2023-05-19T08:36:35;102625.00;;;24.19;37.70
15314;BME280;7757;52.626;4.746;2023-05-19T08:39:01;102620.56;;;24.48;35.65
15314;BME280;7757;52.626;4.746;2023-05-19T08:41:26;102617.44;;;22.38;39.61
15314;BME280;7757;52.626;4.746;2023-05-19T08:43:52;102624.00;;;23.29;38.59
15314;BME280;7757;52.626;4.746;2023-05-19T08:46:20;102620.94;;;24.63;36.57
15314;BME280;7757;52.626;4.746;2023-05-19T08:48:46;102614.63;;;23.92;36.24
15314;BME280;7757;52.626;4.746;2023-05-19T08:51:32;102618.38;;;23.97;35.27
15314;BME280;7757;52.626;4.746;2023-05-19T08:54:09;102604.50;;;23.08;36.36
15314;BME280;7757;52.626;4.746;2023-05-19T08:56:37;102612.22;;;23.83;34.78
15314;BME280;7757;52.626;4.746;2023-05-19T08:59:03;102617.31;;;22.58;36.39
15314;BME280;7757;52.626;4.746;2023-05-19T09:01:29;102623.88;;;26.18;33.13
15314;BME280;7757;52.626;4.746;2023-05-19T09:03:54;102619.44;;;24.79;35.16
15314;BME280;7757;52.626;4.746;2023-05-19T09:06:20;102597.31;;;24.92;36.24
15314;BME280;7757;52.626;4.746;2023-05-19T09:08:45;102614.28;;;22.41;38.39
15314;BME280;7757;52.626;4.746;2023-05-19T09:11:11;102621.69;;;25.40;34.46
15314;BME280;7757;52.626;4.746;2023-05-19T09:13:37;102600.69;;;26.75;31.76
15314;BME280;7757;52.626;4.746;2023-05-19T09:16:02;102620.91;;;26.52;32.43
15314;BME280;7757;52.626;4.746;2023-05-19T09:18:28;102592.66;;;26.85;32.24
15314;BME280;7757;52.626;4.746;2023-05-19T09:20:58;102625.63;;;26.24;31.81
15314;BME280;7757;52.626;4.746;2023-05-19T09:23:33;102610.81;;;27.90;28.73
15314;BME280;7757;52.626;4.746;2023-05-19T09:26:03;102625.25;;;29.91;26.82
15314;BME280;7757;52.626;4.746;2023-05-19T09:28:32;102613.94;;;28.84;27.82
15314;BME280;7757;52.626;4.746;2023-05-19T09:33:23;102604.63;;;28.95;26.60
15314;BME280;7757;52.626;4.746;2023-05-19T09:35:48;102611.44;;;24.13;32.65
15314;BME280;7757;52.626;4.746;2023-05-19T09:38:17;102620.63;;;26.21;31.95
15314;BME280;7757;52.626;4.746;2023-05-19T09:40:43;102612.22;;;29.19;27.34
15314;BME280;7757;52.626;4.746;2023-05-19T09:43:09;102607.94;;;24.35;33.47
15314;BME280;7757;52.626;4.746;2023-05-19T09:45:37;102612.56;;;28.54;28.26
15314;BME280;7757;52.626;4.746;2023-05-19T09:48:03;102605.22;;;29.49;25.71
15314;BME280;7757;52.626;4.746;2023-05-19T09:50:28;102619.56;;;27.05;27.44
15314;BME280;7757;52.626;4.746;2023-05-19T09:52:55;102602.09;;;26.61;28.62
15314;BME280;7757;52.626;4.746;2023-05-19T09:55:24;102595.91;;;25.64;30.33
15314;BME280;7757;52.626;4.746;2023-05-19T09:57:54;102575.38;;;25.38;31.64
15314;BME280;7757;52.626;4.746;2023-05-19T10:00:21;102566.78;;;23.41;34.68
15314;BME280;7757;52.626;4.746;2023-05-19T10:02:48;102582.19;;;22.43;35.61
15314;BME280;7757;52.626;4.746;2023-05-19T10:05:18;102591.47;;;21.60;36.39
15314;BME280;7757;52.626;4.746;2023-05-19T10:07:45;102596.19;;;21.20;37.03
15314;BME280;7757;52.626;4.746;2023-05-19T10:10:13;102598.66;;;21.41;37.71
15314;BME280;7757;52.626;4.746;2023-05-19T10:12:40;102600.19;;;21.11;37.83
15314;BME280;7757;52.626;4.746;2023-05-19T10:15:10;102592.44;;;21.14;38.67
15314;BME280;7757;52.626;4.746;2023-05-19T10:17:40;102588.34;;;21.50;37.51
15314;BME280;7757;52.626;4.746;2023-05-19T10:20:09;102599.31;;;22.82;35.78
15314;BME280;7757;52.626;4.746;2023-05-19T10:22:36;102589.09;;;22.95;35.95
15314;BME280;7757;52.626;4.746;2023-05-19T10:25:02;102581.91;;;22.51;35.88
15314;BME280;7757;52.626;4.746;2023-05-19T10:27:28;102584.22;;;22.48;33.06
15314;BME280;7757;52.626;4.746;2023-05-19T10:29:56;102589.50;;;21.23;33.83
15314;BME280;7757;52.626;4.746;2023-05-19T10:32:31;102592.47;;;21.65;32.84
15314;BME280;7757;52.626;4.746;2023-05-19T10:40:41;102579.13;;;20.61;33.98
15314;BME280;7757;52.626;4.746;2023-05-19T10:43:20;102576.59;;;20.33;32.97
15314;BME280;7757;52.626;4.746;2023-05-19T10:45:52;102578.47;;;20.45;31.77
15314;BME280;7757;52.626;4.746;2023-05-19T10:48:19;102577.13;;;20.09;32.56
15314;BME280;7757;52.626;4.746;2023-05-19T10:50:46;102567.09;;;20.02;32.76
15314;BME280;7757;52.626;4.746;2023-05-19T10:53:15;102573.81;;;21.69;32.00
15314;BME280;7757;52.626;4.746;2023-05-19T10:55:54;102576.97;;;21.73;33.07
15314;BME280;7757;52.626;4.746;2023-05-19T11:01:12;102550.22;;;18.78;34.05
15314;BME280;7757;52.626;4.746;2023-05-19T11:03:56;102576.69;;;19.04;35.17
15314;BME280;7757;52.626;4.746;2023-05-19T11:06:28;102575.34;;;19.62;36.16
15314;BME280;7757;52.626;4.746;2023-05-19T11:11:23;102568.22;;;19.54;35.75
15314;BME280;7757;52.626;4.746;2023-05-19T11:13:53;102570.09;;;20.53;34.94
15314;BME280;7757;52.626;4.746;2023-05-19T11:16:41;102570.94;;;20.87;34.44
15314;BME280;7757;52.626;4.746;2023-05-19T11:21:54;102571.91;;;20.14;34.58
15314;BME280;7757;52.626;4.746;2023-05-19T11:24:44;102570.72;;;20.36;35.74
15314;BME280;7757;52.626;4.746;2023-05-19T11:29:41;102555.31;;;19.69;35.55
15314;BME280;7757;52.626;4.746;2023-05-19T11:32:07;102554.53;;;19.88;36.57
15314;BME280;7757;52.626;4.746;2023-05-19T11:34:33;102561.72;;;20.22;36.33
15314;BME280;7757;52.626;4.746;2023-05-19T11:37:00;102563.41;;;19.56;37.08
15314;BME280;7757;52.626;4.746;2023-05-19T11:39:30;102558.19;;;20.54;34.42
15314;BME280;7757;52.626;4.746;2023-05-19T11:41:55;102560.66;;;20.23;35.06
15314;BME280;7757;52.626;4.746;2023-05-19T11:44:21;102557.59;;;19.72;37.04
15314;BME280;7757;52.626;4.746;2023-05-19T11:46:46;102563.41;;;20.49;36.91
15314;BME280;7757;52.626;4.746;2023-05-19T11:49:12;102563.88;;;19.66;36.68
15314;BME280;7757;52.626;4.746;2023-05-19T11:51:46;102553.88;;;19.73;35.63
15314;BME280;7757;52.626;4.746;2023-05-19T11:54:12;102554.22;;;19.51;37.12
15314;BME280;7757;52.626;4.746;2023-05-19T11:56:41;102525.00;;;18.77;38.46
15314;BME280;7757;52.626;4.746;2023-05-19T11:59:08;102566.72;;;20.19;36.89
15314;BME280;7757;52.626;4.746;2023-05-19T12:01:36;102555.22;;;20.23;36.75
15314;BME280;7757;52.626;4.746;2023-05-19T12:04:06;102553.13;;;20.19;35.92
15314;BME280;7757;52.626;4.746;2023-05-19T12:06:36;102569.50;;;19.65;38.11
15314;BME280;7757;52.626;4.746;2023-05-19T12:09:04;102553.47;;;18.94;39.03
15314;BME280;7757;52.626;4.746;2023-05-19T12:11:29;102560.44;;;19.10;37.84
15314;BME280;7757;52.626;4.746;2023-05-19T12:13:59;102538.09;;;19.08;37.73
15314;BME280;7757;52.626;4.746;2023-05-19T12:16:32;102529.25;;;19.27;37.08
15314;BME280;7757;52.626;4.746;2023-05-19T12:19:04;102544.06;;;19.31;37.56
15314;BME280;7757;52.626;4.746;2023-05-19T12:21:30;102544.41;;;18.81;37.78
15314;BME280;7757;52.626;4.746;2023-05-19T12:23:55;102520.19;;;19.48;38.41
15314;BME280;7757;52.626;4.746;2023-05-19T12:26:20;102538.38;;;19.54;37.69
15314;BME280;7757;52.626;4.746;2023-05-19T12:28:47;102532.81;;;18.93;38.53
15314;BME280;7757;52.626;4.746;2023-05-19T12:31:15;102518.34;;;19.62;37.49
15314;BME280;7757;52.626;4.746;2023-05-19T12:33:47;102535.06;;;18.83;38.69
15314;BME280;7757;52.626;4.746;2023-05-19T12:36:12;102519.22;;;19.28;39.08
15314;BME280;7757;52.626;4.746;2023-05-19T12:38:44;102528.81;;;19.24;38.07
15314;BME280;7757;52.626;4.746;2023-05-19T12:41:11;102515.94;;;18.64;38.68
15314;BME280;7757;52.626;4.746;2023-05-19T12:43:37;102528.47;;;18.65;38.56
15314;BME280;7757;52.626;4.746;2023-05-19T12:46:13;102537.91;;;18.75;39.98
15314;BME280;7757;52.626;4.746;2023-05-19T12:48:44;102530.28;;;19.26;39.67
15314;BME280;7757;52.626;4.746;2023-05-19T12:51:15;102519.81;;;19.23;39.88
15314;BME280;7757;52.626;4.746;2023-05-19T12:53:40;102517.56;;;19.27;39.94
15314;BME280;7757;52.626;4.746;2023-05-19T12:56:13;102533.09;;;19.39;39.79
15314;BME280;7757;52.626;4.746;2023-05-19T12:58:40;102515.59;;;19.14;39.66
15314;BME280;7757;52.626;4.746;2023-05-19T13:01:16;102514.31;;;19.10;39.35
15314;BME280;7757;52.626;4.746;2023-05-19T13:03:45;102492.84;;;19.09;39.37
15314;BME280;7757;52.626;4.746;2023-05-19T13:06:14;102504.22;;;18.91;40.21
15314;BME280;7757;52.626;4.746;2023-05-19T13:08:40;102504.63;;;18.88;40.33
15314;BME280;7757;52.626;4.746;2023-05-19T13:11:05;102491.78;;;19.03;39.71
15314;BME280;7757;52.626;4.746;2023-05-19T13:13:30;102503.66;;;19.02;39.86
15314;BME280;7757;52.626;4.746;2023-05-19T13:15:56;102501.53;;;18.57;40.70
15314;BME280;7757;52.626;4.746;2023-05-19T13:18:21;102500.09;;;19.02;39.86
15314;BME280;7757;52.626;4.746;2023-05-19T13:20:47;102493.56;;;18.83;39.68
15314;BME280;7757;52.626;4.746;2023-05-19T13:23:17;102488.97;;;18.90;39.15
15314;BME280;7757;52.626;4.746;2023-05-19T13:25:42;102495.06;;;18.99;40.00
15314;BME280;7757;52.626;4.746;2023-05-19T13:28:11;102479.84;;;18.63;41.32
15314;BME280;7757;52.626;4.746;2023-05-19T13:30:38;102474.88;;;19.01;41.20
15314;BME280;7757;52.626;4.746;2023-05-19T13:33:06;102480.94;;;19.03;41.84
15314;BME280;7757;52.626;4.746;2023-05-19T13:35:34;102492.03;;;19.15;42.18